This is the latest recevied weather packets stored in our database for station/object OE-11272. If no packets are shown the sender has not sent any weather packets the latest 10 day(s).
| Time | Temp. | Humidity | Pressure | Rain* | Wind** | Luminosity | Snow |
|---|---|---|---|---|---|---|---|
| 1787947525 | 24.44° C | 64% | 1010 hPa | 0 mm | - | 0 W/m² | - |
| 1787946926 | 24.44° C | 65% | 1009.5 hPa | 0 mm | - | 0 W/m² | - |
| 1787946099 | 24.44° C | 61% | 1008.9 hPa | 0 mm | - | 0 W/m² | - |
| 1787945726 | 25.56° C | 58% | 1009.4 hPa | 0 mm | - | 0 W/m² | - |
| 1787945125 | 25.56° C | 56% | 1009.3 hPa | 0 mm | - | 0 W/m² | - |
| 1787944299 | 26.67° C | 51% | 1009.2 hPa | 0 mm | - | 0 W/m² | - |
| 1787943926 | 25.56° C | 59% | 1009.2 hPa | 0 mm | - | 0 W/m² | - |
| 1787943325 | 25° C | 62% | 1009.4 hPa | 0 mm | - | 0 W/m² | - |
| 1787942499 | 26.11° C | 53% | 1009.3 hPa | 0 mm | - | 0 W/m² | - |
| 1787942109 | 26.11° C | 57% | 1009.3 hPa | 0 mm | - | 0 W/m² | - |
| 1787940699 | 26.11° C | 59% | 1008.9 hPa | 0 mm | - | 0 W/m² | - |
| 1787940325 | 26.67° C | 56% | 1008.8 hPa | 0 mm | - | 0 W/m² | - |
| 1787939725 | 26.67° C | 58% | 1008.8 hPa | 0 mm | - | 6 W/m² | - |
| 1787938899 | 27.22° C | 53% | 1008.7 hPa | 0 mm | - | 12 W/m² | - |
| 1787938526 | 27.22° C | 58% | 1008.7 hPa | 0 mm | - | 19 W/m² | - |
| 1787937926 | 27.22° C | 54% | 1008.8 hPa | 0 mm | - | 25 W/m² | - |
| 1787937099 | 26.67° C | 59% | 1008.4 hPa | 0 mm | - | 31 W/m² | - |
| 1787936725 | 27.22° C | 61% | 1008.5 hPa | 0 mm | - | 37 W/m² | - |
| 1787936125 | 28.33° C | 54% | 1008.3 hPa | 0 mm | - | 44 W/m² | - |
| 1787935299 | 27.78° C | 58% | 1008.3 hPa | 0 mm | - | 56 W/m² | - |
| 1787934926 | 28.33° C | 58% | 1008.2 hPa | 0 mm | - | 75 W/m² | - |
| 1787934326 | 29.44° C | 49% | 1007.9 hPa | 0 mm | - | 100 W/m² | - |
| 1787933499 | 29.44° C | 54% | 1008.1 hPa | 0 mm | - | 112 W/m² | - |
| 1787933126 | 30° C | 45% | 1007.8 hPa | 0 mm | - | 119 W/m² | - |
| 1787932526 | 30.56° C | 50% | 1007.7 hPa | 0 mm | - | 112 W/m² | - |
* Rain latest hour (hover to see other rain measurements)
** Current wind speed in m/s (hover to see current wind gust speed)